Time;durP1;ratioP1;P1;durP2;ratioP2;P2;SDS_P1;SDS_P2;PMS_P1;PMS_P2;Temp;Humidity;BMP_temperature;BMP_pressure;BME280_temperature;BME280_humidity;BME280_pressure;Samples;Min_cycle;Max_cycle;Signal;HPM_P1;HPM_P2
2021/06/08 00:03:33;;;;;;;30.60;18.25;;;;;;;17.37;79.21;100511.95;2682537;88;21096;-67
2021/06/08 00:07:35;;;;;;;24.15;17.32;;;;;;;17.40;79.01;100515.66;2682018;88;21077;-68
2021/06/08 00:11:37;;;;;;;21.02;16.42;;;;;;;17.43;78.61;100520.70;2682584;88;21109;-69
2021/06/08 00:15:38;;;;;;;25.25;17.45;;;;;;;17.46;78.70;100521.70;2682545;88;21025;-68
2021/06/08 00:19:42;;;;;;;21.65;17.62;;;;;;;17.52;78.55;100523.75;2682105;88;22315;-69
2021/06/08 00:23:44;;;;;;;18.42;15.95;;;;;;;17.46;77.39;100527.08;2682599;88;21002;-67
2021/06/08 00:27:47;;;;;;;23.07;16.85;;;;;;;17.41;77.10;100526.75;2682435;88;21021;-70
2021/06/08 00:31:48;;;;;;;23.35;17.60;;;;;;;17.35;77.05;100533.61;2682626;88;21061;-71
2021/06/08 00:35:50;;;;;;;19.65;17.50;;;;;;;17.29;77.25;100531.59;2682375;88;21089;-69
2021/06/08 00:39:53;;;;;;;18.90;15.10;;;;;;;17.22;77.26;100535.44;2695515;87;21093;-70
2021/06/08 00:43:54;;;;;;;21.17;17.80;;;;;;;17.15;77.19;100527.70;2726081;87;21366;-69
2021/06/08 00:47:56;;;;;;;21.60;17.27;;;;;;;17.05;77.61;100528.31;2726084;87;21033;-68
2021/06/08 00:51:58;;;;;;;22.13;17.60;;;;;;;17.03;77.74;100529.84;2726249;87;21053;-72
2021/06/08 00:56:00;;;;;;;22.60;16.17;;;;;;;17.01;77.68;100525.63;2725864;87;21014;-66
2021/06/08 01:00:04;;;;;;;19.98;17.17;;;;;;;16.98;77.57;100527.63;2726093;87;21022;-70
2021/06/08 01:04:08;;;;;;;22.48;15.88;;;;;;;16.93;77.59;100516.50;2661801;89;21025;-69
2021/06/08 01:08:10;;;;;;;17.77;14.78;;;;;;;16.88;77.45;100520.67;2726058;87;21073;-69
2021/06/08 01:12:11;;;;;;;16.07;14.07;;;;;;;16.78;77.35;100520.28;2661486;89;21109;-70
2021/06/08 01:16:13;;;;;;;16.87;14.58;;;;;;;16.70;77.08;100517.57;2726183;87;21089;-69
2021/06/08 01:20:18;;;;;;;21.27;15.85;;;;;;;16.61;76.93;100515.34;2661748;89;21092;-67
2021/06/08 01:24:20;;;;;;;12.57;11.20;;;;;;;16.51;77.39;100515.45;2726244;87;21061;-72
2021/06/08 01:28:23;;;;;;;17.23;13.28;;;;;;;16.36;77.68;100512.53;2659856;88;21113;-70
2021/06/08 01:32:27;;;;;;;15.85;12.93;;;;;;;16.17;78.19;100511.39;2720592;87;21054;-66
2021/06/08 01:36:34;;;;;;;20.33;14.47;;;;;;;16.09;78.59;100507.63;2620463;90;21107;-68
2021/06/08 01:40:36;;;;;;;20.25;13.18;;;;;;;16.05;78.82;100521.02;2697060;87;21034;-71
2021/06/08 01:44:42;;;;;;;20.17;12.88;;;;;;;15.85;78.33;100513.64;2661844;89;21097;-68
2021/06/08 01:48:44;;;;;;;;;;;;;;;15.73;78.83;100502.80;2728219;86;21115;-68
2021/06/08 01:53:07;;;;;;;17.82;12.50;;;;;;;15.72;79.16;100507.30;2726053;87;20447;-69
2021/06/08 01:57:26;;;;;;;17.42;13.70;;;;;;;15.65;79.76;100506.25;2638612;89;21117;-69
2021/06/08 02:01:56;;;;;;;21.73;14.33;;;;;;;15.69;79.87;100506.27;2614105;91;21045;-67
2021/06/08 02:06:03;;;;;;;16.82;13.30;;;;;;;15.66;79.93;100506.10;2614057;91;21061;-65
2021/06/08 02:10:49;;;;;;;16.35;12.37;;;;;;;15.55;80.25;100517.91;2613907;90;21634;-69
2021/06/08 02:15:08;;;;;;;17.40;12.25;;;;;;;15.54;80.69;100516.22;2614488;89;22203;-66
2021/06/08 02:19:12;;;;;;;16.62;14.38;;;;;;;15.52;80.23;100518.18;2613637;90;21141;-68
2021/06/08 02:23:19;;;;;;;17.70;12.75;;;;;;;15.55;80.05;100527.77;2614615;90;21050;-70
2021/06/08 02:27:27;;;;;;;15.58;12.03;;;;;;;15.60;79.93;100528.14;2614582;91;21061;-67
2021/06/08 02:31:29;;;;;;;32.70;14.68;;;;;;;15.59;78.89;100531.83;2614358;90;21062;-68
2021/06/08 02:35:33;;;;;;;21.48;13.50;;;;;;;15.45;79.14;100531.86;2614050;89;21099;-69
2021/06/08 02:39:36;;;;;;;13.00;11.60;;;;;;;15.41;79.89;100528.63;2614135;89;21108;-69
2021/06/08 02:43:39;;;;;;;14.55;11.08;;;;;;;15.24;80.49;100532.16;2614018;90;21101;-66
2021/06/08 02:47:44;;;;;;;16.73;11.95;;;;;;;15.13;81.23;100534.52;2614301;89;21563;-67
2021/06/08 02:51:46;;;;;;;13.40;12.00;;;;;;;15.03;81.52;100540.44;2616858;89;21033;-71
2021/06/08 02:55:51;;;;;;;17.23;12.13;;;;;;;14.94;81.87;100539.49;2647634;89;22113;-68
2021/06/08 03:00:01;;;;;;;18.50;13.53;;;;;;;14.90;82.35;100542.95;2653283;89;21111;-66
2021/06/08 03:04:01;;;;;;;13.75;12.37;;;;;;;14.97;82.80;100538.71;2674013;86;21108;-68
2021/06/08 03:08:17;;;;;;;18.57;15.48;;;;;;;15.07;82.67;100541.82;2625906;89;21301;-66
2021/06/08 03:12:24;;;;;;;18.07;12.70;;;;;;;15.12;82.40;100550.25;2626260;89;21124;-67
2021/06/08 03:16:29;;;;;;;18.10;12.65;;;;;;;15.19;82.38;100549.16;2628906;89;21080;-69
2021/06/08 03:20:38;;;;;;;15.78;13.18;;;;;;;15.20;81.96;100555.72;2657731;89;21042;-67
2021/06/08 03:24:42;;;;;;;15.78;12.58;;;;;;;15.34;81.79;100563.74;2652238;89;21104;-67
2021/06/08 03:28:46;;;;;;;12.88;11.38;;;;;;;15.44;80.85;100561.52;2676201;89;21056;-67
2021/06/08 03:32:50;;;;;;;17.90;11.48;;;;;;;15.42;81.11;100568.36;2676375;88;21100;-68
2021/06/08 03:36:56;;;;;;;18.07;13.20;;;;;;;15.45;81.75;100565.88;2676119;89;21073;-67
2021/06/08 03:40:59;;;;;;;19.57;12.85;;;;;;;15.61;81.93;100570.56;2656300;88;21116;-66
2021/06/08 03:45:01;;;;;;;14.85;12.47;;;;;;;15.78;81.25;100565.71;2624380;88;21045;-66
2021/06/08 03:49:03;;;;;;;17.35;12.53;;;;;;;15.84;80.59;100567.77;2618437;90;21550;-65
2021/06/08 03:53:04;;;;;;;19.42;13.28;;;;;;;15.89;80.31;100570.03;2654924;89;21113;-66
2021/06/08 03:57:07;;;;;;;20.95;13.05;;;;;;;16.04;80.51;100571.66;2676573;88;21076;-66
2021/06/08 04:01:10;;;;;;;21.97;13.13;;;;;;;16.16;79.74;100566.89;2672589;88;21126;-67
2021/06/08 04:05:14;;;;;;;16.95;12.63;;;;;;;16.28;79.69;100578.22;2714121;87;22213;-67
2021/06/08 04:09:17;;;;;;;23.07;14.87;;;;;;;16.40;79.77;100572.09;2682262;88;21049;-66
2021/06/08 04:13:19;;;;;;;16.37;13.30;;;;;;;16.58;79.94;100581.45;2644664;89;21076;-71
2021/06/08 04:17:21;;;;;;;27.93;17.30;;;;;;;16.72;80.80;100576.52;2664262;89;21099;-68
2021/06/08 04:21:25;;;;;;;15.45;13.80;;;;;;;17.62;83.19;100573.84;2666785;88;21092;-68
2021/06/08 04:25:28;;;;;;;23.83;14.50;;;;;;;18.74;79.63;100571.16;2670985;87;21111;-66
2021/06/08 04:29:30;;;;;;;20.10;12.70;;;;;;;19.80;75.34;100574.36;2666905;88;21083;-65
2021/06/08 04:33:33;;;;;;;85.75;27.37;;;;;;;20.77;71.88;100569.80;2667009;87;21084;-67
2021/06/08 04:37:39;;;;;;;16.60;12.20;;;;;;;21.80;70.33;100567.13;2712017;85;21092;-67
2021/06/08 04:41:41;;;;;;;15.45;12.13;;;;;;;22.51;65.54;100565.97;2716787;87;21069;-66
2021/06/08 04:45:43;;;;;;;23.83;12.07;;;;;;;22.88;63.85;100565.76;2658442;89;21066;-67
2021/06/08 04:49:45;;;;;;;16.80;11.63;;;;;;;22.88;61.63;100569.32;2659599;89;21038;-65
2021/06/08 04:53:47;;;;;;;17.48;12.43;;;;;;;22.59;62.16;100572.58;2659653;89;21069;-64
2021/06/08 04:57:50;;;;;;;14.75;11.40;;;;;;;22.47;63.25;100572.83;2661480;88;21417;-65
2021/06/08 05:01:52;;;;;;;13.83;11.25;;;;;;;22.66;62.93;100570.77;2668691;88;21602;-67
2021/06/08 05:05:58;;;;;;;18.32;12.18;;;;;;;22.88;63.10;100572.54;2636084;88;21085;-65
2021/06/08 05:10:02;;;;;;;11.70;10.25;;;;;;;23.33;62.49;100576.22;2649254;89;21016;-65
2021/06/08 05:14:07;;;;;;;11.80;10.43;;;;;;;23.59;61.40;100584.14;2635184;90;21068;-65
2021/06/08 05:18:14;;;;;;;11.57;9.13;;;;;;;23.81;61.53;100590.23;2635400;90;21064;-64
2021/06/08 05:22:22;;;;;;;12.65;9.68;;;;;;;24.00;60.23;100592.67;2635271;89;21040;-64
2021/06/08 05:26:24;;;;;;;13.10;10.08;;;;;;;24.06;60.53;100593.22;2635383;90;21084;-67
2021/06/08 05:30:28;;;;;;;16.87;10.70;;;;;;;24.14;58.96;100588.62;2635275;90;21041;-67
2021/06/08 05:34:29;;;;;;;12.43;10.45;;;;;;;24.04;57.85;100596.67;2635081;90;21073;-65
2021/06/08 05:38:40;;;;;;;13.08;9.45;;;;;;;23.75;58.26;100594.59;2634992;90;21146;-66
2021/06/08 05:42:42;;;;;;;16.20;10.43;;;;;;;23.72;58.80;100599.09;2635459;90;21112;-66
2021/06/08 05:46:44;;;;;;;31.15;15.83;;;;;;;23.66;59.10;100605.35;2635283;90;21589;-66
2021/06/08 05:50:46;;;;;;;19.25;12.28;;;;;;;23.49;59.49;100598.93;2615982;90;21060;-66
2021/06/08 05:54:50;;;;;;;29.80;12.78;;;;;;;23.34;59.24;100603.17;2634898;90;21069;-66
2021/06/08 05:58:55;;;;;;;18.30;12.18;;;;;;;23.27;60.00;100599.56;2635912;90;21068;-63
2021/06/08 06:02:58;;;;;;;62.65;18.62;;;;;;;23.35;59.67;100606.20;2683586;88;21030;-67
2021/06/08 06:07:00;;;;;;;19.45;10.98;;;;;;;23.52;60.46;100605.30;2683677;88;21029;-63
2021/06/08 06:11:06;;;;;;;11.93;10.63;;;;;;;23.58;59.65;100604.16;2623953;90;21037;-67
2021/06/08 06:15:09;;;;;;;12.18;10.75;;;;;;;23.72;59.56;100611.31;2665364;89;21063;-65
2021/06/08 06:19:12;;;;;;;13.88;11.55;;;;;;;23.90;59.56;100612.09;2637106;90;21032;-66
2021/06/08 06:23:18;;;;;;;15.00;11.73;;;;;;;23.95;58.16;100613.66;2683657;88;21073;-67
2021/06/08 06:27:21;;;;;;;11.78;10.55;;;;;;;23.98;58.66;100615.65;2686389;88;21089;-65
2021/06/08 06:31:23;;;;;;;12.95;11.63;;;;;;;24.02;59.05;100609.63;2686080;88;21022;-64
2021/06/08 06:35:25;;;;;;;13.90;10.95;;;;;;;24.27;58.70;100606.80;2686547;88;21705;-67
2021/06/08 06:39:30;;;;;;;13.00;11.38;;;;;;;24.39;58.49;100614.14;2686388;88;21046;-66
2021/06/08 06:43:35;;;;;;;13.70;11.50;;;;;;;24.44;59.06;100613.49;2686486;88;21590;-67
2021/06/08 06:47:38;;;;;;;14.47;11.73;;;;;;;24.60;59.11;100612.24;2686604;88;21018;-66
2021/06/08 06:51:45;;;;;;;11.12;9.98;;;;;;;24.79;59.18;100604.30;2686517;88;21018;-64
2021/06/08 06:55:50;;;;;;;14.28;12.28;;;;;;;24.67;56.39;100606.26;2686504;88;21562;-67
2021/06/08 06:59:52;;;;;;;12.60;11.30;;;;;;;24.56;57.55;100599.27;2685096;88;21122;-65
2021/06/08 07:03:57;;;;;;;11.70;10.53;;;;;;;24.78;58.37;100596.64;2683805;88;21058;-65
2021/06/08 07:08:02;;;;;;;16.90;11.18;;;;;;;24.86;57.00;100601.53;2683979;87;21014;-67
2021/06/08 07:12:05;;;;;;;;;;;;;;;24.90;56.87;100602.80;2721721;87;21084;-65
2021/06/08 07:16:09;;;;;;;12.05;10.95;;;;;;;24.91;56.80;100593.05;2727980;87;20098;-65
2021/06/08 07:20:16;;;;;;;14.40;11.30;;;;;;;24.93;57.52;100595.02;2692568;87;21355;-64
2021/06/08 07:24:17;;;;;;;12.75;11.48;;;;;;;24.90;57.52;100602.80;2683927;88;20990;-66
2021/06/08 07:28:20;;;;;;;18.32;11.73;;;;;;;25.00;57.49;100607.80;2684085;87;21061;-66
2021/06/08 07:32:25;;;;;;;13.68;12.28;;;;;;;25.09;56.34;100610.06;2684125;88;21018;-67
2021/06/08 07:36:38;;;;;;;18.00;11.70;;;;;;;25.10;56.48;100609.52;2684155;88;21053;-65
2021/06/08 07:40:51;;;;;;;142.72;33.13;;;;;;;25.16;56.57;100613.28;2684236;88;21125;-65
2021/06/08 07:45:04;;;;;;;14.53;11.93;;;;;;;25.15;56.78;100606.16;2714449;87;21049;-63
2021/06/08 07:49:07;;;;;;;16.65;12.58;;;;;;;25.47;56.55;100613.05;2727912;87;21058;-67
2021/06/08 07:53:09;;;;;;;14.07;12.18;;;;;;;25.71;56.91;100616.91;2727960;87;21045;-64
2021/06/08 07:57:11;;;;;;;19.02;11.75;;;;;;;25.94;57.26;100618.23;2728240;87;21026;-65
2021/06/08 08:01:15;;;;;;;10.60;9.50;;;;;;;26.16;56.59;100611.90;2730443;87;21014;-65
2021/06/08 08:05:18;;;;;;;13.30;10.08;;;;;;;26.34;54.72;100620.72;2731426;87;21025;-66
2021/06/08 08:09:21;;;;;;;17.00;11.68;;;;;;;26.67;54.98;100624.19;2731331;87;21825;-65
2021/06/08 08:13:27;;;;;;;13.68;11.53;;;;;;;26.88;54.63;100617.48;2730819;87;21072;-65
2021/06/08 08:17:30;;;;;;;64.10;18.90;;;;;;;26.96;53.59;100626.45;2731751;87;21022;-66
2021/06/08 08:21:31;;;;;;;14.98;11.05;;;;;;;26.95;54.21;100626.97;2731740;87;21077;-68
2021/06/08 08:25:33;;;;;;;15.45;10.28;;;;;;;27.15;53.57;100626.75;2731526;87;21029;-67
2021/06/08 08:29:37;;;;;;;14.20;10.40;;;;;;;27.33;53.44;100631.34;2731829;87;21053;-66
2021/06/08 08:33:38;;;;;;;15.32;8.18;;;;;;;27.44;54.24;100629.73;2731667;86;21089;-67
2021/06/08 08:37:40;;;;;;;10.58;6.60;;;;;;;27.61;51.86;100634.08;2731686;86;21002;-67
2021/06/08 08:41:43;;;;;;;9.50;7.28;;;;;;;27.71;48.91;100632.16;2731191;86;21109;-66
2021/06/08 08:45:45;;;;;;;9.53;8.25;;;;;;;27.86;47.52;100630.88;2731458;87;21066;-65
2021/06/08 08:49:46;;;;;;;9.33;7.45;;;;;;;27.87;48.16;100634.76;2731871;87;21049;-67
2021/06/08 08:53:50;;;;;;;10.32;7.15;;;;;;;27.90;47.65;100633.44;2731777;87;21453;-66
2021/06/08 08:57:55;;;;;;;10.40;7.75;;;;;;;28.00;48.27;100628.77;2732173;86;21287;-66
2021/06/08 09:01:58;;;;;;;11.30;7.35;;;;;;;28.04;48.17;100623.98;2729053;86;21093;-67
2021/06/08 09:06:00;;;;;;;9.73;7.97;;;;;;;28.16;49.03;100632.23;2729370;87;21058;-65
2021/06/08 09:10:08;;;;;;;7.28;6.67;;;;;;;28.28;48.11;100628.14;2729322;86;21062;-68
2021/06/08 09:14:13;;;;;;;9.00;7.70;;;;;;;28.40;47.83;100630.07;2728827;87;21535;-66
2021/06/08 09:18:19;;;;;;;8.58;7.60;;;;;;;28.36;49.25;100622.86;2729406;87;21033;-67
2021/06/08 09:22:20;;;;;;;10.00;7.53;;;;;;;28.41;47.99;100624.89;2729280;87;21567;-67
2021/06/08 09:26:21;;;;;;;11.22;7.55;;;;;;;28.37;46.65;100620.42;2729517;87;21010;-67
2021/06/08 09:30:23;;;;;;;8.75;6.55;;;;;;;28.44;48.13;100620.31;2729504;87;21065;-66
2021/06/08 09:34:34;;;;;;;9.15;6.33;;;;;;;28.49;48.20;100620.42;2690431;87;21018;-67
2021/06/08 09:38:44;;;;;;;7.70;5.58;;;;;;;28.47;47.21;100616.58;2685550;87;21103;-67
2021/06/08 09:43:10;;;;;;;6.58;5.58;;;;;;;28.40;48.54;100606.82;2685460;88;21165;-67
2021/06/08 09:47:29;;;;;;;7.28;4.80;;;;;;;28.45;49.39;100617.35;2685112;88;21117;-67
2021/06/08 09:51:55;;;;;;;5.53;5.03;;;;;;;28.47;48.40;100603.42;2685531;88;21045;-66
2021/06/08 09:56:04;;;;;;;6.75;4.75;;;;;;;28.45;48.78;100609.66;2685258;88;21124;-66
2021/06/08 10:00:08;;;;;;;6.10;4.35;;;;;;;28.46;48.20;100611.33;2686524;88;21029;-65
2021/06/08 10:04:10;;;;;;;5.37;4.80;;;;;;;28.42;48.43;100612.88;2688461;88;21104;-68
2021/06/08 10:08:12;;;;;;;9.58;5.22;;;;;;;28.36;48.10;100604.56;2688069;88;21045;-66
2021/06/08 10:12:17;;;;;;;4.20;3.75;;;;;;;28.39;46.85;100610.63;2688324;87;20994;-65
2021/06/08 10:16:29;;;;;;;4.35;2.98;;;;;;;28.43;46.49;100610.44;2702655;87;21033;-67
2021/06/08 10:20:41;;;;;;;4.37;3.20;;;;;;;28.40;44.79;100606.82;2691377;87;21097;-66
2021/06/08 10:24:43;;;;;;;4.33;2.80;;;;;;;28.32;45.21;100604.75;2730165;87;21022;-66
2021/06/08 10:28:46;;;;;;;4.33;2.98;;;;;;;28.23;45.30;100599.31;2731734;87;21542;-67
2021/06/08 10:32:48;;;;;;;5.42;3.52;;;;;;;28.20;46.22;100598.42;2732125;87;21029;-65
2021/06/08 10:36:50;;;;;;;4.10;2.83;;;;;;;28.22;43.79;100597.65;2731847;87;21037;-66
2021/06/08 10:40:56;;;;;;;3.20;2.87;;;;;;;28.25;45.16;100597.72;2701949;87;21081;-66
2021/06/08 10:45:08;;;;;;;4.95;3.20;;;;;;;28.26;44.20;100598.02;2687869;88;21558;-67
2021/06/08 10:49:10;;;;;;;5.83;3.30;;;;;;;28.28;48.00;100588.48;2687750;88;21085;-66
2021/06/08 10:53:33;;;;;;;3.60;3.17;;;;;;;28.43;46.25;100586.67;2687999;88;21056;-65
2021/06/08 10:57:44;;;;;;;4.58;3.83;;;;;;;28.43;44.80;100587.19;2687802;88;21088;-66
2021/06/08 11:01:47;;;;;;;3.52;3.22;;;;;;;28.36;44.34;100589.52;2683411;88;21101;-68
2021/06/08 11:05:57;;;;;;;9.20;3.92;;;;;;;28.40;44.72;100580.83;2685502;88;21002;-67
2021/06/08 11:09:59;;;;;;;4.50;3.33;;;;;;;28.43;44.75;100573.52;2685437;88;21029;-66
2021/06/08 11:14:01;;;;;;;4.37;3.98;;;;;;;28.49;43.93;100572.55;2685541;88;21045;-68
2021/06/08 11:18:38;;;;;;;4.53;3.05;;;;;;;28.48;44.05;100565.41;2685483;88;21065;-67
2021/06/08 11:22:50;;;;;;;4.05;3.65;;;;;;;28.42;45.77;100568.59;2685492;88;21026;-68
2021/06/08 11:26:53;;;;;;;4.47;3.55;;;;;;;28.45;46.08;100565.89;2685481;88;21065;-67
2021/06/08 11:30:59;;;;;;;5.58;4.17;;;;;;;28.47;43.03;100561.02;2685549;88;21052;-67
2021/06/08 11:35:34;;;;;;;5.35;4.00;;;;;;;28.55;45.23;100563.41;2685595;88;21559;-67
2021/06/08 11:39:35;;;;;;;3.50;3.20;;;;;;;28.69;44.01;100557.66;2685556;88;21093;-66
2021/06/08 11:43:57;;;;;;;3.87;3.22;;;;;;;28.71;44.57;100552.80;2685190;88;21061;-65
2021/06/08 11:47:59;;;;;;;5.40;3.37;;;;;;;28.74;45.55;100552.31;2685866;88;21032;-68
2021/06/08 11:52:19;;;;;;;5.47;3.35;;;;;;;28.77;41.84;100547.73;2685652;88;21038;-66
2021/06/08 11:56:25;;;;;;;3.40;3.02;;;;;;;28.89;42.13;100548.57;2685932;88;21089;-67
2021/06/08 12:00:54;;;;;;;4.65;3.25;;;;;;;28.99;43.84;100547.11;2684999;88;21073;-66
2021/06/08 12:05:14;;;;;;;2.92;2.72;;;;;;;29.08;41.93;100538.27;2693879;88;21085;-65
2021/06/08 12:09:17;;;;;;;4.30;3.00;;;;;;;29.18;43.62;100539.00;2694449;88;21098;-66
2021/06/08 12:13:32;;;;;;;6.20;3.90;;;;;;;29.21;41.45;100526.18;2693929;88;21111;-66
2021/06/08 12:17:33;;;;;;;6.13;5.47;;;;;;;29.20;41.72;100540.14;2661254;89;21106;-68
2021/06/08 12:21:35;;;;;;;17.17;6.05;;;;;;;29.17;41.85;100531.86;2694447;88;21100;-67
2021/06/08 12:25:37;;;;;;;37.80;9.60;;;;;;;29.43;41.91;100519.22;2694450;88;21042;-67
2021/06/08 12:29:53;;;;;;;7.47;4.10;;;;;;;29.43;41.91;100519.22;2694234;87;21077;-67
2021/06/08 12:33:56;;;;;;;33.33;10.90;;;;;;;29.55;42.43;100525.44;2693996;88;21554;-65
2021/06/08 12:38:20;;;;;;;4.80;4.03;;;;;;;29.61;41.61;100518.14;2734698;87;21073;-65
2021/06/08 12:42:22;;;;;;;5.70;3.20;;;;;;;29.85;41.09;100511.13;2738152;86;21125;-65
2021/06/08 12:46:31;;;;;;;5.62;3.22;;;;;;;29.85;41.09;100511.13;2708630;86;21041;-67
2021/06/08 12:50:37;;;;;;;3.33;3.02;;;;;;;29.75;40.53;100513.16;2734740;87;21554;-68
2021/06/08 12:54:45;;;;;;;4.08;3.75;;;;;;;29.71;40.32;100507.90;2736030;85;21053;-67
2021/06/08 12:58:47;;;;;;;7.05;3.42;;;;;;;29.81;41.07;100514.09;2737621;85;21067;-65
2021/06/08 13:02:50;;;;;;;6.45;4.20;;;;;;;29.79;40.22;100508.31;2729677;87;21076;-68
2021/06/08 13:06:59;;;;;;;5.22;3.17;;;;;;;29.79;40.56;100501.46;2729251;87;21020;-68
2021/06/08 13:11:01;;;;;;;6.97;3.02;;;;;;;29.79;40.56;100501.46;2711517;87;21132;-65
2021/06/08 13:15:09;;;;;;;4.70;4.30;;;;;;;29.83;40.70;100510.03;2729379;87;21077;-67
2021/06/08 13:19:26;;;;;;;3.30;3.00;;;;;;;29.82;41.69;100499.30;2728887;87;21066;-64
2021/06/08 13:23:31;;;;;;;7.35;3.67;;;;;;;29.82;40.77;100502.89;2728930;87;21026;-67
2021/06/08 13:27:36;;;;;;;14.30;4.10;;;;;;;29.70;41.93;100498.86;2729760;87;21093;-63
2021/06/08 13:31:41;;;;;;;6.12;4.12;;;;;;;29.47;41.96;100502.02;2729036;87;21627;-65
2021/06/08 13:35:48;;;;;;;4.90;4.10;;;;;;;29.34;42.75;100492.73;2712230;87;21364;-65
2021/06/08 13:39:50;;;;;;;3.85;3.55;;;;;;;29.36;43.39;100487.83;2708990;87;21073;-67
2021/06/08 13:43:51;;;;;;;4.62;4.22;;;;;;;29.45;41.90;100491.03;2705775;87;20990;-65
2021/06/08 13:47:53;;;;;;;4.58;3.60;;;;;;;29.62;40.98;100493.77;2726782;87;21293;-64
2021/06/08 13:51:57;;;;;;;4.25;3.95;;;;;;;29.83;40.42;100489.47;2730364;87;21054;-65
2021/06/08 13:56:10;;;;;;;3.65;3.33;;;;;;;30.03;39.24;100484.85;2731734;87;21074;-65
2021/06/08 14:00:17;;;;;;;5.75;3.20;;;;;;;29.92;41.42;100491.25;2732756;86;21558;-64
2021/06/08 14:04:21;;;;;;;5.67;4.28;;;;;;;29.42;41.99;100491.53;2732514;86;21050;-64
2021/06/08 14:08:27;;;;;;;5.67;3.83;;;;;;;28.98;45.72;100496.16;2732600;87;21030;-65
2021/06/08 14:12:26;;;;;;;4.05;3.30;;;;;;;28.87;46.53;100489.10;2668246;89;21059;-65
2021/06/08 14:16:29;;;;;;;4.47;3.98;;;;;;;29.07;44.25;100477.73;2709730;87;21087;-65
2021/06/08 14:20:30;;;;;;;3.60;3.30;;;;;;;29.33;42.44;100480.11;2730031;86;21032;-65
2021/06/08 14:24:36;;;;;;;5.62;4.08;;;;;;;29.45;40.58;100476.77;2729272;87;21115;-64
2021/06/08 14:28:38;;;;;;;4.80;4.28;;;;;;;29.33;43.66;100476.00;2729114;87;21033;-65
2021/06/08 14:32:40;;;;;;;7.80;3.77;;;;;;;29.01;45.41;100471.88;2728815;87;21049;-63
2021/06/08 14:36:42;;;;;;;4.33;3.92;;;;;;;28.76;46.66;100470.80;2729139;86;21089;-65
2021/06/08 14:40:43;;;;;;;4.92;3.58;;;;;;;28.71;47.50;100470.15;2729092;87;21104;-65
2021/06/08 14:44:45;;;;;;;3.80;3.50;;;;;;;28.83;43.60;100464.67;2720412;86;21846;-66
2021/06/08 14:48:47;;;;;;;5.10;4.17;;;;;;;28.88;44.56;100460.66;2718408;87;21070;-64
2021/06/08 14:52:48;;;;;;;7.87;3.70;;;;;;;28.85;45.95;100458.96;2727635;87;21034;-65
2021/06/08 14:56:50;;;;;;;4.22;3.70;;;;;;;28.64;46.02;100462.62;2729526;86;20985;-65
2021/06/08 15:00:53;;;;;;;4.95;4.17;;;;;;;28.39;46.37;100455.53;2715812;87;21068;-64
2021/06/08 15:04:55;;;;;;;9.18;4.53;;;;;;;28.56;47.90;100458.89;2732263;87;21069;-63
2021/06/08 15:08:56;;;;;;;4.67;4.28;;;;;;;28.91;45.82;100457.45;2716898;85;20986;-64
2021/06/08 15:12:58;;;;;;;7.67;5.47;;;;;;;29.19;43.98;100456.31;2728793;87;21044;-64
2021/06/08 15:17:00;;;;;;;4.10;3.75;;;;;;;29.23;45.07;100457.48;2727107;87;21041;-64
2021/06/08 15:21:03;;;;;;;4.45;4.05;;;;;;;29.13;44.29;100458.13;2728231;87;21025;-64
2021/06/08 15:25:07;;;;;;;4.65;4.17;;;;;;;28.88;45.06;100451.63;2728312;87;21036;-65
2021/06/08 15:29:09;;;;;;;5.80;5.13;;;;;;;28.71;46.58;100446.08;2728450;87;21042;-64
2021/06/08 15:33:11;;;;;;;4.72;4.30;;;;;;;28.57;47.80;100449.08;2616639;90;21104;-64
2021/06/08 15:37:19;;;;;;;8.20;4.87;;;;;;;28.36;48.89;100448.66;2616592;90;21092;-65
2021/06/08 15:41:20;;;;;;;6.03;4.83;;;;;;;28.11;49.63;100448.89;2616425;91;21096;-65
2021/06/08 15:45:23;;;;;;;5.03;3.72;;;;;;;28.22;51.22;100439.89;2607408;89;21036;-65
2021/06/08 15:49:24;;;;;;;7.30;4.72;;;;;;;28.52;47.34;100438.05;2617053;91;21024;-65
2021/06/08 15:53:26;;;;;;;5.15;4.70;;;;;;;28.72;47.90;100435.42;2635505;89;21033;-64
2021/06/08 15:57:27;;;;;;;5.97;5.37;;;;;;;28.84;44.05;100434.03;2679055;88;21017;-65
2021/06/08 16:01:30;;;;;;;7.00;5.37;;;;;;;28.86;45.21;100425.85;2685429;88;21576;-66
2021/06/08 16:05:32;;;;;;;4.45;4.05;;;;;;;28.93;46.89;100427.08;2709025;87;21125;-66
2021/06/08 16:09:34;;;;;;;5.40;4.33;;;;;;;28.98;46.10;100423.61;2678569;88;21026;-65
2021/06/08 16:13:37;;;;;;;6.92;4.65;;;;;;;29.05;48.42;100427.02;2674578;87;21000;-64
2021/06/08 16:17:39;;;;;;;10.78;4.45;;;;;;;29.02;49.16;100423.41;2666871;89;21036;-64
2021/06/08 16:21:41;;;;;;;9.35;3.52;;;;;;;28.99;47.61;100420.64;2730820;87;21041;-65
2021/06/08 16:25:43;;;;;;;5.22;4.78;;;;;;;28.92;48.16;100415.84;2731016;87;21056;-65
2021/06/08 16:29:44;;;;;;;7.00;5.70;;;;;;;28.81;47.01;100416.19;2732557;87;21042;-65
2021/06/08 16:33:48;;;;;;;5.22;4.72;;;;;;;28.64;47.71;100412.82;2732327;86;21037;-65
2021/06/08 16:37:53;;;;;;;5.20;3.72;;;;;;;28.45;47.73;100409.97;2732433;86;21096;-64
2021/06/08 16:41:56;;;;;;;6.72;5.15;;;;;;;28.32;48.34;100411.08;2725130;86;21537;-64
2021/06/08 16:45:58;;;;;;;4.85;4.22;;;;;;;28.21;49.23;100408.67;2712800;87;20992;-64
2021/06/08 16:50:00;;;;;;;6.25;4.40;;;;;;;28.08;49.59;100405.08;2729148;87;21049;-64
2021/06/08 16:54:02;;;;;;;10.08;4.60;;;;;;;28.03;50.92;100400.06;2729068;87;21109;-64
2021/06/08 16:58:04;;;;;;;5.12;3.62;;;;;;;27.89;50.01;100393.98;2686636;88;21057;-64
2021/06/08 17:02:06;;;;;;;4.08;3.77;;;;;;;27.74;51.85;100399.42;2702759;87;21017;-66
2021/06/08 17:06:09;;;;;;;6.30;4.53;;;;;;;27.59;51.83;100405.34;2702394;87;21531;-68
2021/06/08 17:10:11;;;;;;;7.97;4.20;;;;;;;27.41;52.43;100406.77;2701915;87;21025;-67
2021/06/08 17:14:13;;;;;;;4.28;3.83;;;;;;;27.20;50.34;100416.66;2701955;86;21043;-64
2021/06/08 17:18:15;;;;;;;5.20;4.58;;;;;;;26.98;51.55;100414.98;2702411;88;21089;-66
2021/06/08 17:22:17;;;;;;;5.42;3.75;;;;;;;26.78;51.98;100413.33;2677354;88;21014;-66
2021/06/08 17:26:20;;;;;;;5.83;5.28;;;;;;;26.56;52.33;100412.16;2659973;89;21559;-65
2021/06/08 17:30:24;;;;;;;4.83;4.33;;;;;;;26.40;52.85;100410.36;2698295;88;21109;-66
2021/06/08 17:34:27;;;;;;;7.25;5.03;;;;;;;26.32;53.22;100411.50;2702685;88;21121;-65
2021/06/08 17:38:28;;;;;;;5.67;4.33;;;;;;;26.24;54.13;100410.45;2702586;88;21010;-65
2021/06/08 17:42:30;;;;;;;6.08;5.58;;;;;;;26.22;52.66;100412.57;2702542;86;21077;-66
2021/06/08 17:46:32;;;;;;;6.17;5.55;;;;;;;26.17;53.05;100415.16;2702916;88;21558;-66
2021/06/08 17:50:34;;;;;;;6.60;4.75;;;;;;;26.07;51.55;100408.28;2702958;88;21002;-66
2021/06/08 17:54:36;;;;;;;11.33;5.92;;;;;;;26.01;53.10;100412.44;2702733;88;21034;-67
2021/06/08 17:58:39;;;;;;;5.95;5.37;;;;;;;25.97;53.38;100410.72;2707980;87;21551;-66
2021/06/08 18:02:42;;;;;;;7.25;5.45;;;;;;;25.91;53.53;100417.05;2711929;87;20996;-65
2021/06/08 18:06:43;;;;;;;5.60;5.10;;;;;;;25.81;53.21;100426.58;2728041;87;21032;-66
2021/06/08 18:10:46;;;;;;;6.65;4.97;;;;;;;25.72;53.76;100427.91;2727852;87;21068;-66
2021/06/08 18:14:48;;;;;;;5.83;4.95;;;;;;;25.63;53.48;100429.25;2709809;87;21087;-66
2021/06/08 18:18:51;;;;;;;5.72;4.50;;;;;;;25.53;54.10;100418.32;2725112;87;21569;-66
2021/06/08 18:22:53;;;;;;;10.10;6.15;;;;;;;25.47;55.34;100427.90;2721447;86;21558;-65
2021/06/08 18:26:55;;;;;;;13.20;8.03;;;;;;;25.35;54.40;100427.75;2702972;87;21081;-66
2021/06/08 18:30:57;;;;;;;7.50;5.03;;;;;;;25.23;54.50;100432.56;2730054;87;21058;-66
2021/06/08 18:34:59;;;;;;;8.83;5.85;;;;;;;25.12;54.15;100426.45;2706868;86;21069;-65
2021/06/08 18:39:03;;;;;;;10.35;6.95;;;;;;;24.98;54.99;100429.78;2730351;86;21033;-66
2021/06/08 18:43:06;;;;;;;8.08;6.60;;;;;;;24.83;55.75;100431.95;2728470;86;21040;-66
2021/06/08 18:47:08;;;;;;;7.15;5.85;;;;;;;24.67;55.87;100436.28;2711630;86;21037;-65
2021/06/08 18:51:10;;;;;;;9.05;6.83;;;;;;;24.51;56.48;100436.77;2707245;87;21085;-66